Stations météo

réclame
Mon MeteoGroup
Passo Rolle, Italie (16021): Température de l'air & dewpoint: 17.10.2017 04:00:00 - 23.10.2017 04:00:00 (CEST)Passo Rolle, Italie (16021): Vitesse du vent: 17.10.2017 04:00:00 - 23.10.2017 04:00:00 (CEST)Passo Rolle, Italie (16021): Direction du vent: 17.10.2017 04:00:00 - 23.10.2017 04:00:00 (CEST)Passo Rolle, Italie (16021): visibility: 17.10.2017 04:00:00 - 23.10.2017 04:00:00 (CEST)
Date & Time tt [°C] td [°C] ff [km/h] ff [knt] dd vv [km]
23.10.2017 04:00:00 - - - - - -
23.10.2017 03:00:00 - - - - - -
23.10.2017 02:00:00 - - - - - -
23.10.2017 01:00:00 - - - - - -
23.10.2017 00:00:00 - - - - - -
22.10.2017 23:00:00 -0,4 -6,2 37 20 N 10
22.10.2017 22:00:00 - - - - - -
22.10.2017 21:00:00 - - - - - -
22.10.2017 20:00:00 -1,2 -3,1 24 13 W 0,3
22.10.2017 19:00:00 -1,0 -2,0 26 14 W 0,2
22.10.2017 18:00:00 0,0 -1,0 22 12 W 0,1
22.10.2017 17:00:00 2,0 0,5 11 6 W 0,1
22.10.2017 16:00:00 2,0 0,0 9 5 N 0,1
22.10.2017 15:00:00 3,0 2,0 9 5 NW 0,1
22.10.2017 14:00:00 4,2 2,7 9 5 WNW 0,3
22.10.2017 13:00:00 4,0 3,0 13 7 W 0,3
22.10.2017 12:00:00 6,0 4,0 9 5 SSW 0,3
22.10.2017 11:00:00 5,0 3,5 16 9 W 0,5
22.10.2017 10:00:00 5,0 4,0 15 8 SE 0,3
22.10.2017 09:00:00 5,0 4,0 11 6 S 0,5
22.10.2017 08:00:00 5,6 4,9 9 5 SE 0,2
22.10.2017 07:00:00 5,0 4,0 9 5 SE 0,8
22.10.2017 06:00:00 - - - - - -
22.10.2017 05:00:00 5,0 2,7 13 7 SE 10
22.10.2017 04:00:00 - - - - - -
22.10.2017 03:00:00 - - - - - -
22.10.2017 02:00:00 - - - - - -
22.10.2017 01:00:00 - - - - - -
22.10.2017 00:00:00 - - - - - -
21.10.2017 23:00:00 5,0 5,0 8 4 N 10
21.10.2017 22:00:00 - - - - - -
21.10.2017 21:00:00 - - - - - -
21.10.2017 20:00:00 5,4 5,3 4 2 NNE 10
21.10.2017 19:00:00 6,0 5,0 5 3 NNW 10
21.10.2017 18:00:00 8,0 3,0 2 1 - 10
21.10.2017 17:00:00 10,0 1,9 2 1 NW 10
21.10.2017 16:00:00 11,0 1,0 4 2 S 10
21.10.2017 15:00:00 11,0 1,0 5 3 W 10
21.10.2017 14:00:00 10,4 0,2 5 3 W 10
21.10.2017 13:00:00 10,0 1,0 9 5 WNW 10
21.10.2017 12:00:00 9,0 -1,0 8 4 WNW 10
21.10.2017 11:00:00 9,0 -0,1 5 3 WNW 10
21.10.2017 10:00:00 8,0 1,0 8 4 W 10
21.10.2017 09:00:00 7,0 -1,0 8 4 NNW 10
21.10.2017 08:00:00 6,4 -0,4 9 5 WNW 10
21.10.2017 07:00:00 6,0 0,0 9 5 NNW 10
21.10.2017 06:00:00 - - - - - -
21.10.2017 05:00:00 6,2 0,1 5 3 NW 10
21.10.2017 04:00:00 - - - - - -
21.10.2017 03:00:00 - - - - - -
21.10.2017 02:00:00 5,4 0,8 8 4 NW 15
21.10.2017 01:00:00 - - - - - -
21.10.2017 00:00:00 - - - - - -
20.10.2017 23:00:00 6,0 0,1 4 2 NW 10
20.10.2017 22:00:00 - - - - - -
20.10.2017 21:00:00 - - - - - -
20.10.2017 20:00:00 6,2 1,1 2 1 N 10
20.10.2017 19:00:00 6,0 1,0 5 3 NNW 10
20.10.2017 18:00:00 8,0 2,0 8 4 WNW 10
20.10.2017 17:00:00 9,4 1,1 5 3 WSW 10
20.10.2017 16:00:00 10,0 3,0 9 5 SE 10
20.10.2017 15:00:00 10,0 3,0 4 2 ENE 10
20.10.2017 14:00:00 10,2 1,8 9 5 SSE 10
20.10.2017 13:00:00 10,0 1,0 8 4 W 10
20.10.2017 12:00:00 9,0 1,0 4 2 SSW 10
20.10.2017 11:00:00 8,4 2,2 5 3 NW 10
20.10.2017 10:00:00 7,0 2,0 8 4 N 10
20.10.2017 09:00:00 6,0 2,0 4 2 NNW 10
20.10.2017 08:00:00 5,6 1,3 4 2 NE 10
20.10.2017 07:00:00 6,0 1,0 4 2 NNE 10
20.10.2017 06:00:00 - - - - - -
20.10.2017 05:00:00 5,2 2,4 0 0 N 10
20.10.2017 04:00:00 - - - - - -
20.10.2017 03:00:00 - - - - - -
20.10.2017 02:00:00 5,2 1,7 4 2 NE 10
20.10.2017 01:00:00 - - - - - -
20.10.2017 00:00:00 - - - - - -
19.10.2017 23:00:00 5,2 2,9 4 2 E 10
19.10.2017 22:00:00 - - - - - -
19.10.2017 21:00:00 - - - - - -
19.10.2017 20:00:00 5,2 3,5 4 2 SE 10
19.10.2017 19:00:00 6,0 3,0 11 6 SE 10
19.10.2017 18:00:00 7,0 2,0 11 6 SE 10
19.10.2017 17:00:00 7,8 0,5 15 8 SE 10
19.10.2017 16:00:00 9,0 -2,0 15 8 SE 10
19.10.2017 15:00:00 10,0 -3,0 9 5 SE 10
19.10.2017 14:00:00 9,2 -4,7 9 5 SE 80
19.10.2017 13:00:00 8,0 -4,0 8 4 W 10
19.10.2017 12:00:00 7,0 -2,0 9 5 W 10
19.10.2017 11:00:00 7,0 -1,2 11 6 W 80
19.10.2017 10:00:00 6,0 -4,0 8 4 WNW 10
19.10.2017 09:00:00 - - - - - -
19.10.2017 08:00:00 4,4 -3,4 2 1 NNW 40
19.10.2017 07:00:00 - - - - - -
19.10.2017 06:00:00 - - - - - -
19.10.2017 05:00:00 5,4 -5,9 4 2 NW 20
19.10.2017 04:00:00 - - - - - -
19.10.2017 03:00:00 - - - - - -
19.10.2017 02:00:00 - - - - - -
19.10.2017 01:00:00 - - - - - -
19.10.2017 00:00:00 - - - - - -
18.10.2017 23:00:00 - - - - - -
18.10.2017 22:00:00 - - - - - -
18.10.2017 21:00:00 - - - - - -
18.10.2017 20:00:00 5,4 -1,7 5 3 SE 10
18.10.2017 19:00:00 6,0 -1,0 8 4 SE 10
18.10.2017 18:00:00 8,0 -2,0 8 4 SSE 10
18.10.2017 17:00:00 9,4 -2,9 9 5 ESE 72
18.10.2017 16:00:00 - - - - - -
18.10.2017 15:00:00 - - - - - -
18.10.2017 14:00:00 10,2 -3,8 15 8 SSE 10
18.10.2017 13:00:00 - - - - - -
18.10.2017 12:00:00 9,0 -5,0 5 3 SW 10
18.10.2017 11:00:00 8,8 -5,4 5 3 WSW 10
18.10.2017 10:00:00 8,0 -6,0 4 2 N 10
18.10.2017 09:00:00 6,0 -6,0 0 0 N 10
18.10.2017 08:00:00 6,4 -6,2 0 0 N 10
18.10.2017 07:00:00 - - - - - -
18.10.2017 06:00:00 7,0 -7,0 5 3 SE 10
18.10.2017 05:00:00 6,8 -6,5 5 3 ESE 10
18.10.2017 04:00:00 - - - - - -
18.10.2017 03:00:00 - - - - - -
18.10.2017 02:00:00 7,4 -6,0 0 0 N 10
18.10.2017 01:00:00 - - - - - -
18.10.2017 00:00:00 - - - - - -
17.10.2017 23:00:00 7,6 -5,1 13 7 ESE 10
17.10.2017 22:00:00 - - - - - -
17.10.2017 21:00:00 - - - - - -
17.10.2017 20:00:00 7,4 -1,3 15 8 ESE 10
17.10.2017 19:00:00 8,0 -2,0 15 8 ESE 10
17.10.2017 18:00:00 10,0 -4,0 16 9 SE 10
17.10.2017 17:00:00 10,4 -4,0 18 10 SE 10
17.10.2017 16:00:00 - - - - - -
17.10.2017 15:00:00 12,0 -4,0 16 9 SE 10
17.10.2017 14:00:00 12,8 -3,5 15 8 SE 10
17.10.2017 13:00:00 13,0 -3,0 13 7 SE 10
17.10.2017 12:00:00 12,0 -2,0 11 6 ESE 10
17.10.2017 11:00:00 11,6 -2,2 15 8 SE 10
17.10.2017 10:00:00 11,0 -2,0 15 8 ESE 10
17.10.2017 09:00:00 9,0 -4,0 9 5 ESE 10
17.10.2017 08:00:00 8,2 -4,6 15 8 SSE 10
17.10.2017 07:00:00 8,0 -4,0 4 2 E 10
17.10.2017 06:00:00 9,0 -2,0 5 3 ESE 10
17.10.2017 05:00:00 9,4 -2,2 4 2 E 10
17.10.2017 04:00:00 - - - - - -

tt = Température de l'air
td = dewpoint
ff = Vitesse du vent
dd = Direction du vent
vv = visibility

stations d'obs. à proximité